map of LHE home
LHE - Airport
Location
City:  Lahore, Punjab, Pakistan
Name:Allama Iqbal International Airport
ICAO:OPLA
IATA:LHE

Details
Type:Airport (Aerodrome, Airfield)
Use:Public/Civil, Military, International (customs port of entry)
Latitude:3131'18"N (31.521564)
Longitude:7424'13"E (74.403594)
Datum:WGS 1984
Elevation:712 ft (217 m)
Variation:2.06E (WMM2015 magnetic declination)
0.06 annual change
Runways:2
Longest:11024 × 151 ft (3360 × 46 m), paved

Time
Time Zone:UTC+5
Local Time:

Weather
METAR:OPLA 161355Z 11004KT 4000 FU SCT100 26/18 Q1011 NOSIG RMK QFE985 RMK A29.83

Related Locations
Nearby:
Farthest:IPC: 12057 mi / 19404 km
Easter Island (Isla de Pascua, Rapa Nui) [Mataveri Intl], VS, CL

Find:

   beyond  
but within

Other Information
Maps:
NOTAMs:
Links:
Sources:

  
  • flag of Pakistan
  • flag of Punjab
  

Airport Diagram

Airport diagram for LHE

Larger airport diagram (OBSOLETE) from NGA

Sectional Chart

Flight Planning
at skyvector.com

Satellite Image

Google Maps Satellite view

 

Copyright © 2004-2018 Karl L. Swartz. All rights reserved.
The Great Circle Mapper name and logo are trademarks of the Great Circle Mapper.
All other trademarks mentioned herein belong to their respective owners.
Please see credits for attibutions and further copyright information.

  Follow gcmap on Facebook Follow gcmap on Twitter Follow gcmap on Google+ GCmap on LinkedIn

hCard Microformat

Geo Microformat